createdAt,value
2018-12-11T00:04:46.217Z,4.70
2018-12-11T00:09:48.651Z,4.71
2018-12-11T00:14:51.053Z,4.71
2018-12-11T00:19:53.618Z,4.62
2018-12-11T00:24:56.020Z,4.53
2018-12-11T00:29:58.416Z,4.54
2018-12-11T00:35:01.058Z,4.51
2018-12-11T00:40:04.378Z,4.52
2018-12-11T00:45:07.051Z,4.48
2018-12-11T00:50:09.697Z,4.46
2018-12-11T00:55:12.234Z,4.40
2018-12-11T01:00:14.705Z,4.36
2018-12-11T01:05:17.138Z,4.35
2018-12-11T01:10:19.723Z,4.31
2018-12-11T01:15:22.085Z,4.23
2018-12-11T01:20:24.491Z,4.23
2018-12-11T01:25:26.866Z,4.27
2018-12-11T01:30:29.359Z,4.24
2018-12-11T01:35:31.765Z,4.16
2018-12-11T01:40:34.133Z,4.22
2018-12-11T01:45:36.854Z,4.19
2018-12-11T01:50:39.271Z,4.21
2018-12-11T01:55:41.690Z,4.19
2018-12-11T02:00:44.229Z,4.26
2018-12-11T02:05:46.599Z,4.26
2018-12-11T02:10:49.011Z,4.25
2018-12-11T02:15:51.382Z,4.28
2018-12-11T02:20:53.778Z,4.27
2018-12-11T02:25:56.267Z,4.22
2018-12-11T02:30:58.600Z,4.15
2018-12-11T02:36:01.268Z,4.10
2018-12-11T02:41:03.638Z,4.09
2018-12-11T02:46:06.033Z,4.03
2018-12-11T02:51:08.431Z,4.05
2018-12-11T02:56:10.758Z,4.03
2018-12-11T03:01:13.142Z,4.08
2018-12-11T03:06:15.562Z,4.08
2018-12-11T03:11:17.972Z,4.09
2018-12-11T03:16:20.551Z,4.13
2018-12-11T03:21:22.995Z,4.15
2018-12-11T03:26:25.441Z,4.14
2018-12-11T03:31:27.862Z,4.15
2018-12-11T03:36:30.347Z,4.09
2018-12-11T03:41:32.848Z,3.83
2018-12-11T03:46:35.275Z,3.49
2018-12-11T03:51:37.625Z,3.46
2018-12-11T03:56:40.154Z,3.62
2018-12-11T04:01:42.559Z,3.55
2018-12-11T04:06:45.791Z,3.58
2018-12-11T04:11:48.252Z,3.47
2018-12-11T04:16:51.419Z,3.45
2018-12-11T04:21:54.384Z,3.60
2018-12-11T04:26:56.858Z,3.56
2018-12-11T04:31:59.344Z,3.55
2018-12-11T04:37:01.775Z,3.62
2018-12-11T04:42:05.060Z,3.64
2018-12-11T04:47:07.550Z,3.59
2018-12-11T04:52:10.293Z,3.52
2018-12-11T04:57:12.664Z,3.69
2018-12-11T05:02:15.058Z,3.68
2018-12-11T05:07:17.485Z,3.67
2018-12-11T05:12:19.900Z,3.71
2018-12-11T05:17:22.245Z,3.76
2018-12-11T05:22:26.726Z,3.70
2018-12-11T05:27:29.119Z,3.64
2018-12-11T05:32:31.539Z,3.69
2018-12-11T05:37:33.957Z,3.73
2018-12-11T05:42:36.477Z,3.73
2018-12-11T05:47:39.125Z,3.82
2018-12-11T05:52:41.437Z,3.78
2018-12-11T05:57:43.864Z,3.79
2018-12-11T06:02:46.408Z,3.74
2018-12-11T06:07:48.744Z,3.75
2018-12-11T06:12:51.272Z,3.76
2018-12-11T06:17:55.503Z,3.82
2018-12-11T06:22:58.103Z,3.80
2018-12-11T06:28:00.514Z,3.81
2018-12-11T06:33:03.031Z,3.81
2018-12-11T06:38:05.556Z,3.85
2018-12-11T06:43:07.958Z,3.95
2018-12-11T06:48:10.642Z,3.98
2018-12-11T06:53:12.945Z,4.01
2018-12-11T06:58:16.083Z,4.06
2018-12-11T07:03:18.543Z,4.09
2018-12-11T07:08:20.956Z,4.03
2018-12-11T07:13:23.425Z,4.11
2018-12-11T07:18:26.754Z,4.16
2018-12-11T07:23:29.295Z,4.21
2018-12-11T07:28:31.611Z,4.23
2018-12-11T07:33:35.301Z,4.26
2018-12-11T07:38:37.821Z,4.19
2018-12-11T07:43:40.208Z,4.18
2018-12-11T07:48:42.605Z,4.12
2018-12-11T07:53:44.941Z,4.10
2018-12-11T07:58:47.326Z,3.94
2018-12-11T08:03:49.713Z,3.93
2018-12-11T08:08:52.026Z,4.05
2018-12-11T08:13:54.631Z,3.97
2018-12-11T08:18:57.325Z,3.94
2018-12-11T08:23:59.705Z,4.01
2018-12-11T08:29:02.778Z,4.02
2018-12-11T08:34:05.178Z,4.08
2018-12-11T08:39:07.512Z,4.22
2018-12-11T08:44:09.876Z,4.30
2018-12-11T08:49:12.259Z,4.32
2018-12-11T08:54:14.584Z,4.36
2018-12-11T08:59:17.003Z,4.48
2018-12-11T09:04:19.362Z,4.48
2018-12-11T09:09:21.697Z,4.61
2018-12-11T09:14:24.004Z,4.66
2018-12-11T09:19:26.367Z,4.67
2018-12-11T09:24:28.833Z,4.88
2018-12-11T09:29:31.168Z,4.71
2018-12-11T09:34:33.491Z,4.71
2018-12-11T09:39:36.057Z,4.84
2018-12-11T09:44:38.398Z,4.79
2018-12-11T09:49:40.756Z,4.82
2018-12-11T09:54:43.106Z,4.96
2018-12-11T09:59:46.139Z,4.96
2018-12-11T10:04:48.470Z,4.94
2018-12-11T10:09:51.091Z,4.72
2018-12-11T10:14:53.489Z,4.83
2018-12-11T10:19:55.942Z,4.89
2018-12-11T10:24:58.383Z,4.92
2018-12-11T10:30:00.694Z,5.10
2018-12-11T10:35:03.550Z,4.86
2018-12-11T10:40:06.426Z,4.77
2018-12-11T10:45:09.013Z,4.77
2018-12-11T10:50:11.674Z,4.78
2018-12-11T10:55:14.161Z,4.86
2018-12-11T11:00:23.060Z,4.96
2018-12-11T11:05:25.505Z,5.12
2018-12-11T11:10:27.972Z,5.04
2018-12-11T11:15:30.392Z,5.03
2018-12-11T11:20:33.203Z,5.08
2018-12-11T11:25:35.950Z,5.26
2018-12-11T11:30:38.450Z,5.61
2018-12-11T11:35:40.879Z,5.61
2018-12-11T11:40:43.362Z,5.65
2018-12-11T11:45:45.781Z,5.42
2018-12-11T11:50:48.451Z,5.47
2018-12-11T11:55:50.841Z,5.32
2018-12-11T12:00:53.437Z,5.43
2018-12-11T12:05:57.263Z,5.45
2018-12-11T12:10:59.794Z,5.66
2018-12-11T12:16:02.495Z,5.61
2018-12-11T12:21:04.969Z,5.51
2018-12-11T12:26:07.383Z,5.79
2018-12-11T12:31:10.240Z,5.78
2018-12-11T12:36:13.769Z,5.93
2018-12-11T12:41:16.116Z,6.06
2018-12-11T12:46:18.998Z,5.98
2018-12-11T12:51:22.231Z,5.82
2018-12-11T12:56:25.299Z,6.21
2018-12-11T13:01:27.717Z,6.10
2018-12-11T13:06:30.616Z,5.90
2018-12-11T13:11:33.163Z,5.82
2018-12-11T13:16:37.630Z,5.83
2018-12-11T13:21:40.133Z,5.75
2018-12-11T13:26:42.537Z,5.75
2018-12-11T13:31:44.995Z,5.75
2018-12-11T13:36:47.459Z,5.77
2018-12-11T13:41:49.843Z,5.78
2018-12-11T13:46:52.849Z,5.81
2018-12-11T13:51:55.421Z,5.63
2018-12-11T13:56:58.006Z,5.52
2018-12-11T14:02:00.350Z,5.51
2018-12-11T14:07:03.402Z,5.60
2018-12-11T14:12:05.815Z,5.73
2018-12-11T14:17:08.256Z,5.83
2018-12-11T14:22:11.653Z,5.68
2018-12-11T14:27:14.994Z,5.53
2018-12-11T14:32:17.396Z,5.45
2018-12-11T14:37:19.836Z,5.48
2018-12-11T14:42:22.325Z,5.34
2018-12-11T14:47:25.276Z,5.34
2018-12-11T14:52:27.589Z,5.26
2018-12-11T14:57:31.418Z,5.26
2018-12-11T15:07:49.560Z,5.08
2018-12-11T15:12:52.108Z,5.07
2018-12-11T15:17:54.584Z,4.99
2018-12-11T15:22:57.017Z,4.99
2018-12-11T15:27:59.460Z,4.89
2018-12-11T15:33:01.975Z,4.81
2018-12-11T15:38:04.279Z,4.74
2018-12-11T15:43:06.893Z,4.66
2018-12-11T15:48:09.280Z,4.76
2018-12-11T15:53:11.749Z,4.76
2018-12-11T15:58:14.238Z,4.85
2018-12-11T16:03:17.296Z,4.68
2018-12-11T16:08:19.717Z,4.66
2018-12-11T16:13:22.093Z,4.64
2018-12-11T16:18:24.447Z,4.61
2018-12-11T16:23:26.865Z,4.59
2018-12-11T16:28:29.213Z,4.60
2018-12-11T16:33:32.389Z,4.53
2018-12-11T16:38:34.993Z,4.54
2018-12-11T16:43:39.354Z,4.51
2018-12-11T16:48:42.043Z,4.47
2018-12-11T16:53:44.475Z,4.47
2018-12-11T16:58:46.828Z,4.39
2018-12-11T17:03:49.247Z,4.36
2018-12-11T17:08:51.533Z,4.29
2018-12-11T17:13:53.970Z,4.29
2018-12-11T17:18:56.329Z,4.29
2018-12-11T17:23:58.779Z,4.27
2018-12-11T17:29:01.115Z,4.28
2018-12-11T17:34:03.496Z,4.30
2018-12-11T17:39:07.145Z,4.27
2018-12-11T17:44:09.449Z,4.24
2018-12-11T17:49:11.822Z,4.28
2018-12-11T17:54:14.134Z,4.29
2018-12-11T17:59:16.563Z,4.30
2018-12-11T18:04:19.072Z,4.39
2018-12-11T18:09:21.510Z,4.34
2018-12-11T18:14:23.809Z,4.44
2018-12-11T18:19:26.305Z,4.43
2018-12-11T18:24:28.631Z,4.37
2018-12-11T18:29:31.359Z,4.47
2018-12-11T18:34:38.349Z,4.48
2018-12-11T18:39:41.016Z,4.49
2018-12-11T18:44:43.907Z,4.49
2018-12-11T18:49:46.273Z,4.53
2018-12-11T18:54:48.662Z,4.51
2018-12-11T18:59:51.250Z,4.51
2018-12-11T19:04:53.644Z,4.51
2018-12-11T19:09:56.095Z,4.54
2018-12-11T19:15:04.632Z,4.55
2018-12-11T19:20:04.494Z,4.59
2018-12-11T19:25:09.803Z,4.60
2018-12-11T19:30:12.779Z,4.61
2018-12-11T19:35:15.504Z,4.59
2018-12-11T19:40:18.244Z,4.60
2018-12-11T19:45:20.690Z,4.57
2018-12-11T19:50:23.275Z,4.56
2018-12-11T19:55:26.350Z,4.60
2018-12-11T20:00:29.785Z,4.62
2018-12-11T20:05:32.273Z,4.43
2018-12-11T20:10:34.691Z,4.40
2018-12-11T20:15:37.289Z,4.29
2018-12-11T20:20:39.805Z,4.36
2018-12-11T20:25:42.469Z,4.37
2018-12-11T20:30:45.614Z,4.46
2018-12-11T20:35:48.182Z,4.46
2018-12-11T20:40:50.551Z,4.44
2018-12-11T20:45:53.142Z,4.37
2018-12-11T20:50:55.482Z,4.44
2018-12-11T20:55:57.982Z,4.47
2018-12-11T21:01:00.412Z,4.51
2018-12-11T21:06:03.318Z,4.48
2018-12-11T21:11:05.772Z,4.45
2018-12-11T21:16:10.919Z,4.40
2018-12-11T21:21:13.042Z,4.42
2018-12-11T21:26:15.499Z,4.41
2018-12-11T21:31:17.993Z,4.30
2018-12-11T21:36:20.799Z,4.18
2018-12-11T21:41:23.320Z,4.05
2018-12-11T21:46:25.645Z,4.04
2018-12-11T21:51:28.131Z,3.96
2018-12-11T21:56:30.563Z,3.81
2018-12-11T22:01:33.288Z,3.81
2018-12-11T22:06:35.817Z,3.74
2018-12-11T22:11:39.006Z,3.70
2018-12-11T22:16:41.389Z,3.70
2018-12-11T22:21:43.785Z,3.72
2018-12-11T22:26:46.200Z,3.69
2018-12-11T22:31:49.666Z,3.60
2018-12-11T22:36:52.889Z,3.65
2018-12-11T22:41:55.367Z,3.64
2018-12-11T22:46:58.402Z,3.68
2018-12-11T22:52:00.809Z,3.61
2018-12-11T22:57:03.305Z,3.63
2018-12-11T23:02:06.139Z,3.62
2018-12-11T23:07:08.474Z,3.54
2018-12-11T23:12:10.856Z,3.54
2018-12-11T23:17:13.446Z,3.52
2018-12-11T23:22:15.779Z,3.51
2018-12-11T23:27:18.234Z,3.51
2018-12-11T23:32:20.599Z,3.45
2018-12-11T23:37:23.289Z,3.50
2018-12-11T23:42:25.634Z,3.34
2018-12-11T23:47:28.174Z,3.39
2018-12-11T23:52:30.585Z,3.30
2018-12-11T23:57:33.045Z,3.36
